sensor_id;sensor_type;location;lat;lon;timestamp;pressure;altitude;pressure_sealevel;temperature;humidity
21290;BME280;10804;48.988;2.408;2023-05-21T00:01:28;100884.63;;;19.42;57.23
21290;BME280;10804;48.988;2.408;2023-05-21T00:03:55;100881.22;;;19.40;57.14
21290;BME280;10804;48.988;2.408;2023-05-21T00:06:24;100876.03;;;19.39;57.17
21290;BME280;10804;48.988;2.408;2023-05-21T00:08:52;100877.09;;;19.36;57.27
21290;BME280;10804;48.988;2.408;2023-05-21T00:11:19;100878.03;;;19.35;57.25
21290;BME280;10804;48.988;2.408;2023-05-21T00:13:47;100876.31;;;19.34;57.30
21290;BME280;10804;48.988;2.408;2023-05-21T00:16:16;100879.06;;;19.33;57.33
21290;BME280;10804;48.988;2.408;2023-05-21T00:18:43;100873.94;;;19.30;57.31
21290;BME280;10804;48.988;2.408;2023-05-21T00:21:10;100870.53;;;19.28;57.37
21290;BME280;10804;48.988;2.408;2023-05-21T00:23:39;100880.34;;;19.26;57.52
21290;BME280;10804;48.988;2.408;2023-05-21T00:26:07;100878.66;;;19.25;57.35
21290;BME280;10804;48.988;2.408;2023-05-21T00:28:34;100873.53;;;19.22;57.37
21290;BME280;10804;48.988;2.408;2023-05-21T00:31:02;100868.25;;;19.22;57.60
21290;BME280;10804;48.988;2.408;2023-05-21T00:33:31;100865.75;;;19.19;57.50
21290;BME280;10804;48.988;2.408;2023-05-21T00:35:58;100868.41;;;19.19;57.43
21290;BME280;10804;48.988;2.408;2023-05-21T00:38:27;100866.78;;;19.16;57.57
21290;BME280;10804;48.988;2.408;2023-05-21T00:40:54;100867.81;;;19.14;57.49
21290;BME280;10804;48.988;2.408;2023-05-21T00:43:22;100860.00;;;19.12;57.69
21290;BME280;10804;48.988;2.408;2023-05-21T00:45:51;100860.16;;;19.09;57.52
21290;BME280;10804;48.988;2.408;2023-05-21T00:48:19;100857.59;;;19.08;57.71
21290;BME280;10804;48.988;2.408;2023-05-21T00:50:48;100850.72;;;19.05;57.68
21290;BME280;10804;48.988;2.408;2023-05-21T00:53:16;100858.63;;;19.05;57.71
21290;BME280;10804;48.988;2.408;2023-05-21T00:55:44;100849.09;;;19.03;57.75
21290;BME280;10804;48.988;2.408;2023-05-21T00:58:13;100851.81;;;19.01;57.65
21290;BME280;10804;48.988;2.408;2023-05-21T01:00:43;100854.53;;;19.00;57.73
21290;BME280;10804;48.988;2.408;2023-05-21T01:03:11;100850.31;;;18.97;57.75
21290;BME280;10804;48.988;2.408;2023-05-21T01:05:39;100846.88;;;18.95;57.71
21290;BME280;10804;48.988;2.408;2023-05-21T01:08:11;100845.25;;;18.93;57.64
21290;BME280;10804;48.988;2.408;2023-05-21T01:10:40;100840.91;;;18.92;57.85
21290;BME280;10804;48.988;2.408;2023-05-21T01:13:07;100841.19;;;18.87;57.72
21290;BME280;10804;48.988;2.408;2023-05-21T01:15:35;100843.75;;;18.89;57.69
21290;BME280;10804;48.988;2.408;2023-05-21T01:18:03;100847.41;;;18.86;57.70
21290;BME280;10804;48.988;2.408;2023-05-21T01:20:32;100846.72;;;18.83;57.82
21290;BME280;10804;48.988;2.408;2023-05-21T01:23:02;100852.03;;;18.83;57.75
21290;BME280;10804;48.988;2.408;2023-05-21T01:25:29;100848.53;;;18.82;57.80
21290;BME280;10804;48.988;2.408;2023-05-21T01:27:57;100840.09;;;18.76;57.87
21290;BME280;10804;48.988;2.408;2023-05-21T01:30:24;100843.53;;;18.78;57.90
21290;BME280;10804;48.988;2.408;2023-05-21T01:32:55;100843.53;;;18.78;57.84
21290;BME280;10804;48.988;2.408;2023-05-21T01:35:27;100845.56;;;18.73;57.92
21290;BME280;10804;48.988;2.408;2023-05-21T01:38:01;100844.03;;;18.69;57.98
21290;BME280;10804;48.988;2.408;2023-05-21T01:40:35;100845.56;;;18.73;57.97
21290;BME280;10804;48.988;2.408;2023-05-21T01:43:07;100842.16;;;18.71;58.01
21290;BME280;10804;48.988;2.408;2023-05-21T01:45:38;100844.03;;;18.69;57.92
21290;BME280;10804;48.988;2.408;2023-05-21T01:48:07;100852.13;;;18.66;57.98
21290;BME280;10804;48.988;2.408;2023-05-21T01:50:36;100840.03;;;18.62;57.89
21290;BME280;10804;48.988;2.408;2023-05-21T01:53:04;100843.53;;;18.62;58.13
21290;BME280;10804;48.988;2.408;2023-05-21T01:55:33;100839.19;;;18.61;58.17
21290;BME280;10804;48.988;2.408;2023-05-21T01:58:04;100840.03;;;18.62;58.15
21290;BME280;10804;48.988;2.408;2023-05-21T02:00:32;100841.16;;;18.58;58.18
21290;BME280;10804;48.988;2.408;2023-05-21T02:02:59;100844.75;;;18.57;57.99
21290;BME280;10804;48.988;2.408;2023-05-21T02:05:28;100850.03;;;18.57;58.03
21290;BME280;10804;48.988;2.408;2023-05-21T02:07:55;100839.59;;;18.54;58.03
21290;BME280;10804;48.988;2.408;2023-05-21T02:10:24;100823.25;;;18.47;58.22
21290;BME280;10804;48.988;2.408;2023-05-21T02:12:53;100834.69;;;18.48;58.17
21290;BME280;10804;48.988;2.408;2023-05-21T02:15:24;100837.22;;;18.49;58.13
21290;BME280;10804;48.988;2.408;2023-05-21T02:17:52;100818.56;;;18.37;58.13
21290;BME280;10804;48.988;2.408;2023-05-21T02:20:21;100830.31;;;18.47;58.25
21290;BME280;10804;48.988;2.408;2023-05-21T02:22:49;100836.53;;;18.46;58.22
21290;BME280;10804;48.988;2.408;2023-05-21T02:25:17;100827.78;;;18.45;58.26
21290;BME280;10804;48.988;2.408;2023-05-21T02:27:45;100829.75;;;18.42;58.22
21290;BME280;10804;48.988;2.408;2023-05-21T02:30:14;100816.88;;;18.36;58.30
21290;BME280;10804;48.988;2.408;2023-05-21T02:32:42;100837.75;;;18.40;58.25
21290;BME280;10804;48.988;2.408;2023-05-21T02:35:10;100840.47;;;18.39;58.22
21290;BME280;10804;48.988;2.408;2023-05-21T02:37:39;100845.75;;;18.39;58.45
21290;BME280;10804;48.988;2.408;2023-05-21T02:40:07;100846.78;;;18.36;58.32
21290;BME280;10804;48.988;2.408;2023-05-21T02:42:35;100846.94;;;18.33;58.32
21290;BME280;10804;48.988;2.408;2023-05-21T02:45:06;100846.13;;;18.33;58.34
21290;BME280;10804;48.988;2.408;2023-05-21T02:47:35;100844.38;;;18.32;58.38
21290;BME280;10804;48.988;2.408;2023-05-21T02:50:05;100852.53;;;18.27;58.47
21290;BME280;10804;48.988;2.408;2023-05-21T02:52:32;100848.09;;;18.28;58.36
21290;BME280;10804;48.988;2.408;2023-05-21T02:55:00;100842.81;;;18.28;58.42
21290;BME280;10804;48.988;2.408;2023-05-21T02:57:27;100841.13;;;18.27;58.42
21290;BME280;10804;48.988;2.408;2023-05-21T02:59:55;100840.44;;;18.23;58.18
21290;BME280;10804;48.988;2.408;2023-05-21T03:02:23;100835.16;;;18.23;58.35
21290;BME280;10804;48.988;2.408;2023-05-21T03:04:52;100849.31;;;18.22;58.56
21290;BME280;10804;48.988;2.408;2023-05-21T03:07:19;100842.31;;;18.21;58.37
21290;BME280;10804;48.988;2.408;2023-05-21T03:09:47;100838.22;;;18.16;58.16
21290;BME280;10804;48.988;2.408;2023-05-21T03:12:15;100840.78;;;18.17;58.31
21290;BME280;10804;48.988;2.408;2023-05-21T03:14:42;100837.31;;;18.17;58.43
21290;BME280;10804;48.988;2.408;2023-05-21T03:17:11;100847.06;;;18.15;58.57
21290;BME280;10804;48.988;2.408;2023-05-21T03:19:40;100843.66;;;18.13;58.42
21290;BME280;10804;48.988;2.408;2023-05-21T03:22:09;100853.28;;;18.14;58.58
21290;BME280;10804;48.988;2.408;2023-05-21T03:24:37;100849.28;;;18.07;58.51
21290;BME280;10804;48.988;2.408;2023-05-21T03:27:06;100852.59;;;18.10;58.41
21290;BME280;10804;48.988;2.408;2023-05-21T03:29:34;100847.56;;;18.06;58.35
21290;BME280;10804;48.988;2.408;2023-05-21T03:32:03;100844.88;;;18.07;58.33
21290;BME280;10804;48.988;2.408;2023-05-21T03:34:32;100853.78;;;18.05;58.40
21290;BME280;10804;48.988;2.408;2023-05-21T03:37:01;100860.78;;;18.06;58.67
21290;BME280;10804;48.988;2.408;2023-05-21T03:39:30;100855.69;;;18.03;58.37
21290;BME280;10804;48.988;2.408;2023-05-21T03:41:58;100850.47;;;18.01;58.62
21290;BME280;10804;48.988;2.408;2023-05-21T03:44:35;100854.03;;;18.00;58.46
21290;BME280;10804;48.988;2.408;2023-05-21T03:47:22;100856.84;;;17.97;58.56
21290;BME280;10804;48.988;2.408;2023-05-21T03:49:52;100849.03;;;17.96;58.42
21290;BME280;10804;48.988;2.408;2023-05-21T03:52:20;100856.94;;;17.96;58.63
21290;BME280;10804;48.988;2.408;2023-05-21T03:54:49;100856.19;;;17.94;58.42
21290;BME280;10804;48.988;2.408;2023-05-21T03:57:16;100864.91;;;17.94;58.71
21290;BME280;10804;48.988;2.408;2023-05-21T03:59:46;100860.66;;;17.92;58.58
21290;BME280;10804;48.988;2.408;2023-05-21T04:02:14;100863.41;;;17.90;58.62
21290;BME280;10804;48.988;2.408;2023-05-21T04:04:41;100866.94;;;17.89;58.46
21290;BME280;10804;48.988;2.408;2023-05-21T04:07:10;100865.25;;;17.88;58.46
21290;BME280;10804;48.988;2.408;2023-05-21T04:09:40;100865.41;;;17.85;58.54
21290;BME280;10804;48.988;2.408;2023-05-21T04:12:09;100864.56;;;17.85;58.75
21290;BME280;10804;48.988;2.408;2023-05-21T04:14:37;100872.41;;;17.86;58.58
21290;BME280;10804;48.988;2.408;2023-05-21T04:17:04;100876.81;;;17.86;58.67
21290;BME280;10804;48.988;2.408;2023-05-21T04:19:32;100879.56;;;17.84;58.63
21290;BME280;10804;48.988;2.408;2023-05-21T04:22:01;100880.50;;;17.83;58.54
21290;BME280;10804;48.988;2.408;2023-05-21T04:24:30;100877.06;;;17.81;58.58
21290;BME280;10804;48.988;2.408;2023-05-21T04:27:09;100868.38;;;17.79;58.64
21290;BME280;10804;48.988;2.408;2023-05-21T04:29:36;100883.38;;;17.79;58.68
21290;BME280;10804;48.988;2.408;2023-05-21T04:32:08;100884.28;;;17.78;58.72
21290;BME280;10804;48.988;2.408;2023-05-21T04:34:36;100876.38;;;17.78;58.76
21290;BME280;10804;48.988;2.408;2023-05-21T04:37:05;100880.88;;;17.76;58.60
21290;BME280;10804;48.988;2.408;2023-05-21T04:39:34;100879.16;;;17.75;58.65
21290;BME280;10804;48.988;2.408;2023-05-21T04:42:01;100885.47;;;17.72;58.75
21290;BME280;10804;48.988;2.408;2023-05-21T04:44:30;100882.75;;;17.74;58.76
21290;BME280;10804;48.988;2.408;2023-05-21T04:46:59;100887.34;;;17.70;58.78
21290;BME280;10804;48.988;2.408;2023-05-21T04:49:27;100895.19;;;17.72;58.68
21290;BME280;10804;48.988;2.408;2023-05-21T04:51:55;100887.34;;;17.70;58.75
21290;BME280;10804;48.988;2.408;2023-05-21T04:54:24;100888.50;;;17.65;58.82
21290;BME280;10804;48.988;2.408;2023-05-21T04:56:51;100896.25;;;17.68;58.73
21290;BME280;10804;48.988;2.408;2023-05-21T04:59:19;100887.41;;;17.69;58.73
21290;BME280;10804;48.988;2.408;2023-05-21T05:01:49;100892.84;;;17.66;58.84
21290;BME280;10804;48.988;2.408;2023-05-21T05:04:16;100893.78;;;17.65;58.72
21290;BME280;10804;48.988;2.408;2023-05-21T05:06:43;100899.91;;;17.65;58.72
21290;BME280;10804;48.988;2.408;2023-05-21T05:09:11;100900.00;;;17.64;58.73
21290;BME280;10804;48.988;2.408;2023-05-21T05:11:38;100895.63;;;17.63;58.58
21290;BME280;10804;48.988;2.408;2023-05-21T05:14:06;100888.50;;;17.65;58.79
21290;BME280;10804;48.988;2.408;2023-05-21T05:16:34;100888.50;;;17.65;58.59
21290;BME280;10804;48.988;2.408;2023-05-21T05:19:03;100890.34;;;17.63;58.76
21290;BME280;10804;48.988;2.408;2023-05-21T05:21:30;100897.50;;;17.61;58.73
21290;BME280;10804;48.988;2.408;2023-05-21T05:23:59;100897.50;;;17.61;58.68
21290;BME280;10804;48.988;2.408;2023-05-21T05:26:28;100895.72;;;17.61;58.92
21290;BME280;10804;48.988;2.408;2023-05-21T05:28:56;100891.38;;;17.60;58.80
21290;BME280;10804;48.988;2.408;2023-05-21T05:31:23;100902.00;;;17.59;58.78
21290;BME280;10804;48.988;2.408;2023-05-21T05:33:52;100898.44;;;17.60;58.67
21290;BME280;10804;48.988;2.408;2023-05-21T05:36:23;100899.53;;;17.56;58.72
21290;BME280;10804;48.988;2.408;2023-05-21T05:38:54;100896.72;;;17.59;58.79
21290;BME280;10804;48.988;2.408;2023-05-21T05:41:22;100895.78;;;17.60;58.72
21290;BME280;10804;48.988;2.408;2023-05-21T05:43:50;100900.25;;;17.59;58.65
21290;BME280;10804;48.988;2.408;2023-05-21T05:46:20;100904.66;;;17.59;58.57
21290;BME280;10804;48.988;2.408;2023-05-21T05:48:50;100896.03;;;17.55;58.79
21290;BME280;10804;48.988;2.408;2023-05-21T05:51:19;100903.72;;;17.60;58.67
21290;BME280;10804;48.988;2.408;2023-05-21T05:53:48;100894.16;;;17.57;58.80
21290;BME280;10804;48.988;2.408;2023-05-21T05:56:16;100902.06;;;17.57;58.70
21290;BME280;10804;48.988;2.408;2023-05-21T05:58:44;100899.38;;;17.59;58.72
21290;BME280;10804;48.988;2.408;2023-05-21T06:01:13;100908.22;;;17.58;58.78
21290;BME280;10804;48.988;2.408;2023-05-21T06:03:41;100897.59;;;17.59;58.67
21290;BME280;10804;48.988;2.408;2023-05-21T06:06:15;100902.78;;;17.61;58.60
21290;BME280;10804;48.988;2.408;2023-05-21T06:08:43;100912.50;;;17.60;58.68
21290;BME280;10804;48.988;2.408;2023-05-21T06:11:13;100913.31;;;17.61;58.64
21290;BME280;10804;48.988;2.408;2023-05-21T06:13:42;100917.66;;;17.62;58.62
21290;BME280;10804;48.988;2.408;2023-05-21T06:16:09;100917.59;;;17.63;58.56
21290;BME280;10804;48.988;2.408;2023-05-21T06:18:37;100909.63;;;17.65;58.58
21290;BME280;10804;48.988;2.408;2023-05-21T06:21:05;100905.16;;;17.65;58.58
21290;BME280;10804;48.988;2.408;2023-05-21T06:23:32;100908.69;;;17.66;58.53
21290;BME280;10804;48.988;2.408;2023-05-21T06:26:01;100904.25;;;17.66;58.51
21290;BME280;10804;48.988;2.408;2023-05-21T06:28:31;100908.59;;;17.67;58.55
21290;BME280;10804;48.988;2.408;2023-05-21T06:30:59;100905.88;;;17.69;58.44
21290;BME280;10804;48.988;2.408;2023-05-21T06:33:27;100902.47;;;17.67;58.62
21290;BME280;10804;48.988;2.408;2023-05-21T06:35:54;100911.94;;;17.71;58.63
21290;BME280;10804;48.988;2.408;2023-05-21T06:38:23;100919.00;;;17.70;58.58
21290;BME280;10804;48.988;2.408;2023-05-21T06:40:50;100921.44;;;17.73;58.53
21290;BME280;10804;48.988;2.408;2023-05-21T06:43:35;100920.44;;;17.76;58.43
21290;BME280;10804;48.988;2.408;2023-05-21T06:46:21;100916.88;;;17.77;58.38
21290;BME280;10804;48.988;2.408;2023-05-21T06:48:48;100908.97;;;17.77;58.33
21290;BME280;10804;48.988;2.408;2023-05-21T06:51:16;100913.31;;;17.78;58.44
21290;BME280;10804;48.988;2.408;2023-05-21T06:53:43;100916.72;;;17.80;58.48
21290;BME280;10804;48.988;2.408;2023-05-21T06:56:11;100919.28;;;17.81;58.57
21290;BME280;10804;48.988;2.408;2023-05-21T06:58:42;100911.28;;;17.83;58.49
21290;BME280;10804;48.988;2.408;2023-05-21T07:01:10;100915.38;;;17.88;58.47
21290;BME280;10804;48.988;2.408;2023-05-21T07:03:38;100913.53;;;17.90;58.58
21290;BME280;10804;48.988;2.408;2023-05-21T07:06:07;100913.44;;;17.92;58.58
21290;BME280;10804;48.988;2.408;2023-05-21T07:08:34;100910.66;;;17.95;58.35
21290;BME280;10804;48.988;2.408;2023-05-21T07:11:02;100915.13;;;17.93;58.48
21290;BME280;10804;48.988;2.408;2023-05-21T07:13:30;100907.84;;;17.98;58.39
21290;BME280;10804;48.988;2.408;2023-05-21T07:15:59;100915.50;;;18.02;58.41
21290;BME280;10804;48.988;2.408;2023-05-21T07:18:26;100907.34;;;18.07;58.21
21290;BME280;10804;48.988;2.408;2023-05-21T07:20:54;100901.06;;;18.09;58.39
21290;BME280;10804;48.988;2.408;2023-05-21T07:23:22;100907.34;;;18.07;58.23
21290;BME280;10804;48.988;2.408;2023-05-21T07:25:49;100912.31;;;18.13;58.24
21290;BME280;10804;48.988;2.408;2023-05-21T07:28:18;100913.00;;;18.16;58.18
21290;BME280;10804;48.988;2.408;2023-05-21T07:30:45;100913.69;;;18.20;58.21
21290;BME280;10804;48.988;2.408;2023-05-21T07:33:19;100922.28;;;18.23;58.18
21290;BME280;10804;48.988;2.408;2023-05-21T07:35:49;100915.22;;;18.24;58.03
21290;BME280;10804;48.988;2.408;2023-05-21T07:38:18;100918.53;;;18.27;58.37
21290;BME280;10804;48.988;2.408;2023-05-21T07:40:47;100917.47;;;18.31;58.17
21290;BME280;10804;48.988;2.408;2023-05-21T07:43:15;100915.47;;;18.36;58.08
21290;BME280;10804;48.988;2.408;2023-05-21T07:45:43;100913.56;;;18.38;58.02
21290;BME280;10804;48.988;2.408;2023-05-21T07:48:10;100918.69;;;18.41;58.08
21290;BME280;10804;48.988;2.408;2023-05-21T07:50:50;100910.59;;;18.44;58.09
21290;BME280;10804;48.988;2.408;2023-05-21T07:53:19;100910.50;;;18.46;57.88
21290;BME280;10804;48.988;2.408;2023-05-21T07:55:46;100913.00;;;18.49;58.09
21290;BME280;10804;48.988;2.408;2023-05-21T07:58:17;100909.34;;;18.51;57.87
21290;BME280;10804;48.988;2.408;2023-05-21T08:00:46;100915.31;;;18.55;57.98
21290;BME280;10804;48.988;2.408;2023-05-21T08:03:14;100907.19;;;18.58;57.97
21290;BME280;10804;48.988;2.408;2023-05-21T08:05:43;100905.31;;;18.60;58.01
21290;BME280;10804;48.988;2.408;2023-05-21T08:08:15;100911.34;;;18.62;57.99
21290;BME280;10804;48.988;2.408;2023-05-21T08:10:44;100912.97;;;18.64;57.96
21290;BME280;10804;48.988;2.408;2023-05-21T08:13:13;100918.94;;;18.68;58.09
21290;BME280;10804;48.988;2.408;2023-05-21T08:15:42;100910.88;;;18.71;58.16
21290;BME280;10804;48.988;2.408;2023-05-21T08:18:09;100904.53;;;18.73;58.11
21290;BME280;10804;48.988;2.408;2023-05-21T08:20:37;100901.81;;;18.75;58.12
21290;BME280;10804;48.988;2.408;2023-05-21T08:23:06;100889.34;;;18.77;58.08
21290;BME280;10804;48.988;2.408;2023-05-21T08:25:42;100893.47;;;18.82;58.09
21290;BME280;10804;48.988;2.408;2023-05-21T08:28:10;100891.59;;;18.84;58.24
21290;BME280;10804;48.988;2.408;2023-05-21T08:30:37;100900.19;;;18.88;58.25
21290;BME280;10804;48.988;2.408;2023-05-21T08:33:05;100886.09;;;18.87;58.45
21290;BME280;10804;48.988;2.408;2023-05-21T08:35:33;100881.69;;;18.88;58.36
21290;BME280;10804;48.988;2.408;2023-05-21T08:38:23;100889.28;;;18.94;58.47
21290;BME280;10804;48.988;2.408;2023-05-21T08:41:17;100894.19;;;19.00;58.57
21290;BME280;10804;48.988;2.408;2023-05-21T08:43:54;100885.16;;;19.04;58.77
21290;BME280;10804;48.988;2.408;2023-05-21T08:46:22;100886.94;;;19.03;58.67
21290;BME280;10804;48.988;2.408;2023-05-21T08:48:51;100888.41;;;19.09;58.71
21290;BME280;10804;48.988;2.408;2023-05-21T08:51:20;100881.38;;;19.08;58.77
21290;BME280;10804;48.988;2.408;2023-05-21T08:53:54;100886.50;;;19.11;58.82
21290;BME280;10804;48.988;2.408;2023-05-21T08:56:24;100890.66;;;19.15;58.77
21290;BME280;10804;48.988;2.408;2023-05-21T08:58:56;100898.44;;;19.18;58.90
21290;BME280;10804;48.988;2.408;2023-05-21T09:01:28;100891.28;;;19.20;58.94
21290;BME280;10804;48.988;2.408;2023-05-21T09:04:07;100899.91;;;19.23;58.94
21290;BME280;10804;48.988;2.408;2023-05-21T09:06:36;100894.41;;;19.26;59.04
21290;BME280;10804;48.988;2.408;2023-05-21T09:09:10;100883.69;;;19.29;58.97
21290;BME280;10804;48.988;2.408;2023-05-21T09:11:47;100885.28;;;19.32;58.90
21290;BME280;10804;48.988;2.408;2023-05-21T09:14:15;100889.44;;;19.36;58.86
21290;BME280;10804;48.988;2.408;2023-05-21T09:17:06;100895.50;;;19.38;59.11
21290;BME280;10804;48.988;2.408;2023-05-21T09:19:34;100889.16;;;19.40;59.07
21290;BME280;10804;48.988;2.408;2023-05-21T09:22:02;100883.78;;;19.42;59.13
21290;BME280;10804;48.988;2.408;2023-05-21T09:24:32;100880.97;;;19.45;59.16
21290;BME280;10804;48.988;2.408;2023-05-21T09:27:01;100884.28;;;19.48;59.13
21290;BME280;10804;48.988;2.408;2023-05-21T09:29:32;100878.91;;;19.50;59.13
21290;BME280;10804;48.988;2.408;2023-05-21T09:32:05;100880.69;;;19.49;59.17
21290;BME280;10804;48.988;2.408;2023-05-21T09:34:34;100875.31;;;19.51;59.09
21290;BME280;10804;48.988;2.408;2023-05-21T09:37:02;100873.13;;;19.57;59.09
21290;BME280;10804;48.988;2.408;2023-05-21T09:39:30;100883.56;;;19.60;59.13
21290;BME280;10804;48.988;2.408;2023-05-21T09:42:03;100882.53;;;19.63;59.14
21290;BME280;10804;48.988;2.408;2023-05-21T09:44:31;100871.75;;;19.66;59.19
21290;BME280;10804;48.988;2.408;2023-05-21T09:46:59;100875.91;;;19.70;59.27
21290;BME280;10804;48.988;2.408;2023-05-21T09:49:28;100881.97;;;19.72;59.27
21290;BME280;10804;48.988;2.408;2023-05-21T09:51:58;100882.63;;;19.75;59.33
21290;BME280;10804;48.988;2.408;2023-05-21T09:54:30;100872.72;;;19.79;59.14
21290;BME280;10804;48.988;2.408;2023-05-21T09:56:59;100872.59;;;19.80;59.03
21290;BME280;10804;48.988;2.408;2023-05-21T09:59:35;100870.72;;;19.82;59.15
21290;BME280;10804;48.988;2.408;2023-05-21T10:02:14;100868.75;;;19.86;59.27
21290;BME280;10804;48.988;2.408;2023-05-21T10:04:43;100874.59;;;19.91;59.34
21290;BME280;10804;48.988;2.408;2023-05-21T10:07:14;100858.63;;;19.92;59.31
21290;BME280;10804;48.988;2.408;2023-05-21T10:09:46;100858.53;;;19.94;59.37
21290;BME280;10804;48.988;2.408;2023-05-21T10:12:16;100856.34;;;20.00;59.23
21290;BME280;10804;48.988;2.408;2023-05-21T10:14:46;100847.38;;;20.02;59.29
21290;BME280;10804;48.988;2.408;2023-05-21T10:17:16;100840.13;;;20.06;59.30
21290;BME280;10804;48.988;2.408;2023-05-21T10:19:45;100839.91;;;20.09;59.29
21290;BME280;10804;48.988;2.408;2023-05-21T10:22:13;100838.78;;;20.13;59.26
21290;BME280;10804;48.988;2.408;2023-05-21T10:24:42;100843.03;;;20.16;59.28
21290;BME280;10804;48.988;2.408;2023-05-21T10:27:11;100846.22;;;20.20;59.26
21290;BME280;10804;48.988;2.408;2023-05-21T10:29:40;100839.97;;;20.21;59.30
21290;BME280;10804;48.988;2.408;2023-05-21T10:32:10;100838.00;;;20.25;59.27
21290;BME280;10804;48.988;2.408;2023-05-21T10:34:38;100849.16;;;20.30;59.32
21290;BME280;10804;48.988;2.408;2023-05-21T10:37:07;100840.16;;;20.32;59.23
21290;BME280;10804;48.988;2.408;2023-05-21T10:39:36;100841.66;;;20.36;59.16
21290;BME280;10804;48.988;2.408;2023-05-21T10:42:15;100847.59;;;20.40;59.26
21290;BME280;10804;48.988;2.408;2023-05-21T10:44:55;100846.88;;;20.38;59.15
21290;BME280;10804;48.988;2.408;2023-05-21T10:47:51;100850.75;;;20.46;59.36
21290;BME280;10804;48.988;2.408;2023-05-21T10:50:39;100838.97;;;20.50;59.14
21290;BME280;10804;48.988;2.408;2023-05-21T10:53:15;100837.72;;;20.56;59.31
21290;BME280;10804;48.988;2.408;2023-05-21T10:55:54;100838.38;;;20.59;59.17
21290;BME280;10804;48.988;2.408;2023-05-21T10:58:51;100831.06;;;20.63;59.14
21290;BME280;10804;48.988;2.408;2023-05-21T11:01:26;100831.72;;;20.66;59.22
21290;BME280;10804;48.988;2.408;2023-05-21T11:03:56;100833.25;;;20.70;58.86
21290;BME280;10804;48.988;2.408;2023-05-21T11:06:25;100840.03;;;20.74;59.12
21290;BME280;10804;48.988;2.408;2023-05-21T11:08:52;100829.25;;;20.77;59.02
21290;BME280;10804;48.988;2.408;2023-05-21T11:11:39;100823.50;;;20.83;58.94
21290;BME280;10804;48.988;2.408;2023-05-21T11:14:25;100833.97;;;20.86;59.04
21290;BME280;10804;48.988;2.408;2023-05-21T11:16:52;100818.72;;;20.90;59.23
21290;BME280;10804;48.988;2.408;2023-05-21T11:19:31;100821.03;;;20.94;58.94
21290;BME280;10804;48.988;2.408;2023-05-21T11:22:00;100814.69;;;20.97;58.87
21290;BME280;10804;48.988;2.408;2023-05-21T11:24:31;100816.06;;;21.02;58.94
21290;BME280;10804;48.988;2.408;2023-05-21T11:27:00;100822.13;;;21.04;58.84
21290;BME280;10804;48.988;2.408;2023-05-21T11:29:40;100815.56;;;21.10;58.90
21290;BME280;10804;48.988;2.408;2023-05-21T11:32:08;100814.50;;;21.12;58.85
21290;BME280;10804;48.988;2.408;2023-05-21T11:34:38;100809.84;;;21.16;58.82
21290;BME280;10804;48.988;2.408;2023-05-21T11:37:28;100813.88;;;21.21;58.80
21290;BME280;10804;48.988;2.408;2023-05-21T11:39:57;100819.94;;;21.23;58.95
21290;BME280;10804;48.988;2.408;2023-05-21T11:42:41;100815.38;;;21.25;58.79
21290;BME280;10804;48.988;2.408;2023-05-21T11:45:10;100814.97;;;21.31;58.76
21290;BME280;10804;48.988;2.408;2023-05-21T11:47:38;100821.00;;;21.33;58.65
21290;BME280;10804;48.988;2.408;2023-05-21T11:50:11;100809.25;;;21.37;58.89
21290;BME280;10804;48.988;2.408;2023-05-21T11:52:39;100816.03;;;21.41;58.74
21290;BME280;10804;48.988;2.408;2023-05-21T11:55:07;100808.59;;;21.46;58.56
21290;BME280;10804;48.988;2.408;2023-05-21T11:57:36;100813.69;;;21.49;58.73
21290;BME280;10804;48.988;2.408;2023-05-21T12:00:12;100812.41;;;21.55;58.68
21290;BME280;10804;48.988;2.408;2023-05-21T12:02:43;100797.13;;;21.58;58.60
21290;BME280;10804;48.988;2.408;2023-05-21T12:05:13;100800.72;;;21.57;58.62
21290;BME280;10804;48.988;2.408;2023-05-21T12:07:40;100805.44;;;21.66;58.82
21290;BME280;10804;48.988;2.408;2023-05-21T12:10:09;100796.31;;;21.70;58.77
21290;BME280;10804;48.988;2.408;2023-05-21T12:12:36;100801.28;;;21.75;58.51
21290;BME280;10804;48.988;2.408;2023-05-21T12:15:05;100790.34;;;21.79;58.34
21290;BME280;10804;48.988;2.408;2023-05-21T12:17:32;100789.19;;;21.83;58.43
21290;BME280;10804;48.988;2.408;2023-05-21T12:20:00;100789.19;;;21.83;58.60
21290;BME280;10804;48.988;2.408;2023-05-21T12:22:33;100780.75;;;21.89;58.51
21290;BME280;10804;48.988;2.408;2023-05-21T12:25:00;100801.56;;;21.95;58.09
21290;BME280;10804;48.988;2.408;2023-05-21T12:27:30;100793.28;;;22.00;58.42
21290;BME280;10804;48.988;2.408;2023-05-21T12:29:57;100789.66;;;22.01;58.19
21290;BME280;10804;48.988;2.408;2023-05-21T12:32:26;100794.63;;;22.05;58.12
21290;BME280;10804;48.988;2.408;2023-05-21T12:34:55;100788.16;;;22.09;58.17
21290;BME280;10804;48.988;2.408;2023-05-21T12:37:23;100799.19;;;22.16;58.31
21290;BME280;10804;48.988;2.408;2023-05-21T12:39:57;100780.47;;;22.17;58.24
21290;BME280;10804;48.988;2.408;2023-05-21T12:42:26;100782.81;;;22.22;58.27
21290;BME280;10804;48.988;2.408;2023-05-21T12:44:56;100785.03;;;22.28;58.00
21290;BME280;10804;48.988;2.408;2023-05-21T12:47:24;100776.94;;;22.29;58.09
21290;BME280;10804;48.988;2.408;2023-05-21T12:49:53;100775.50;;;22.36;57.89
21290;BME280;10804;48.988;2.408;2023-05-21T12:52:23;100786.78;;;22.40;58.04
21290;BME280;10804;48.988;2.408;2023-05-21T12:54:52;100784.66;;;22.45;58.03
21290;BME280;10804;48.988;2.408;2023-05-21T12:57:23;100787.94;;;22.48;57.91
21290;BME280;10804;48.988;2.408;2023-05-21T12:59:54;100787.72;;;22.51;57.64
21290;BME280;10804;48.988;2.408;2023-05-21T13:02:23;100777.59;;;22.56;57.86
21290;BME280;10804;48.988;2.408;2023-05-21T13:04:55;100775.44;;;22.61;57.85